sensor_id;sensor_type;location;lat;lon;timestamp;P1;durP1;ratioP1;P2;durP2;ratioP2
36827;SDS011;22766;48.042;11.192;2024-03-08T00:00:09;20.63;;;9.20;;
36827;SDS011;22766;48.042;11.192;2024-03-08T00:02:40;20.50;;;8.82;;
36827;SDS011;22766;48.042;11.192;2024-03-08T00:05:08;20.67;;;9.18;;
36827;SDS011;22766;48.042;11.192;2024-03-08T00:07:36;20.10;;;9.32;;
36827;SDS011;22766;48.042;11.192;2024-03-08T00:10:04;19.80;;;9.70;;
36827;SDS011;22766;48.042;11.192;2024-03-08T00:12:31;21.38;;;8.55;;
36827;SDS011;22766;48.042;11.192;2024-03-08T00:14:58;19.77;;;9.52;;
36827;SDS011;22766;48.042;11.192;2024-03-08T00:17:25;20.55;;;9.27;;
36827;SDS011;22766;48.042;11.192;2024-03-08T00:19:54;16.63;;;8.60;;
36827;SDS011;22766;48.042;11.192;2024-03-08T00:22:21;17.08;;;8.55;;
36827;SDS011;22766;48.042;11.192;2024-03-08T00:24:48;20.50;;;9.60;;
36827;SDS011;22766;48.042;11.192;2024-03-08T00:27:17;19.55;;;9.63;;
36827;SDS011;22766;48.042;11.192;2024-03-08T00:29:47;21.92;;;9.85;;
36827;SDS011;22766;48.042;11.192;2024-03-08T00:32:14;18.15;;;8.63;;
36827;SDS011;22766;48.042;11.192;2024-03-08T00:34:41;20.20;;;9.70;;
36827;SDS011;22766;48.042;11.192;2024-03-08T00:37:09;18.10;;;8.10;;
36827;SDS011;22766;48.042;11.192;2024-03-08T00:39:37;19.85;;;9.52;;
36827;SDS011;22766;48.042;11.192;2024-03-08T00:42:03;19.52;;;8.68;;
36827;SDS011;22766;48.042;11.192;2024-03-08T00:44:30;17.88;;;9.02;;
36827;SDS011;22766;48.042;11.192;2024-03-08T00:46:58;22.83;;;9.55;;
36827;SDS011;22766;48.042;11.192;2024-03-08T00:49:25;20.95;;;9.63;;
36827;SDS011;22766;48.042;11.192;2024-03-08T00:51:52;20.13;;;8.75;;
36827;SDS011;22766;48.042;11.192;2024-03-08T00:54:19;21.50;;;9.55;;
36827;SDS011;22766;48.042;11.192;2024-03-08T00:56:46;17.63;;;8.40;;
36827;SDS011;22766;48.042;11.192;2024-03-08T00:59:13;23.55;;;9.52;;
36827;SDS011;22766;48.042;11.192;2024-03-08T01:01:40;20.67;;;10.32;;
36827;SDS011;22766;48.042;11.192;2024-03-08T01:04:07;20.55;;;8.32;;
36827;SDS011;22766;48.042;11.192;2024-03-08T01:06:34;20.50;;;9.43;;
36827;SDS011;22766;48.042;11.192;2024-03-08T01:09:01;19.02;;;8.30;;
36827;SDS011;22766;48.042;11.192;2024-03-08T01:11:28;20.23;;;8.38;;
36827;SDS011;22766;48.042;11.192;2024-03-08T01:13:55;17.75;;;8.77;;
36827;SDS011;22766;48.042;11.192;2024-03-08T01:16:22;17.33;;;8.05;;
36827;SDS011;22766;48.042;11.192;2024-03-08T01:18:49;17.70;;;8.48;;
36827;SDS011;22766;48.042;11.192;2024-03-08T01:21:17;22.08;;;9.68;;
36827;SDS011;22766;48.042;11.192;2024-03-08T01:23:44;18.95;;;8.75;;
36827;SDS011;22766;48.042;11.192;2024-03-08T01:26:10;20.00;;;8.45;;
36827;SDS011;22766;48.042;11.192;2024-03-08T01:28:37;19.38;;;8.20;;
36827;SDS011;22766;48.042;11.192;2024-03-08T01:31:04;16.55;;;8.07;;
36827;SDS011;22766;48.042;11.192;2024-03-08T01:33:32;21.08;;;8.77;;
36827;SDS011;22766;48.042;11.192;2024-03-08T01:36:00;17.83;;;8.65;;
36827;SDS011;22766;48.042;11.192;2024-03-08T01:38:26;16.83;;;8.15;;
36827;SDS011;22766;48.042;11.192;2024-03-08T01:40:53;18.73;;;8.77;;
36827;SDS011;22766;48.042;11.192;2024-03-08T01:43:21;20.73;;;8.20;;
36827;SDS011;22766;48.042;11.192;2024-03-08T01:45:55;21.38;;;8.50;;
36827;SDS011;22766;48.042;11.192;2024-03-08T01:48:26;20.13;;;8.30;;
36827;SDS011;22766;48.042;11.192;2024-03-08T01:50:58;20.58;;;8.30;;
36827;SDS011;22766;48.042;11.192;2024-03-08T01:53:27;17.38;;;8.65;;
36827;SDS011;22766;48.042;11.192;2024-03-08T01:55:58;16.90;;;9.00;;
36827;SDS011;22766;48.042;11.192;2024-03-08T01:58:26;14.40;;;7.57;;
36827;SDS011;22766;48.042;11.192;2024-03-08T02:00:56;16.77;;;7.97;;
36827;SDS011;22766;48.042;11.192;2024-03-08T02:03:24;16.88;;;8.65;;
36827;SDS011;22766;48.042;11.192;2024-03-08T02:05:51;19.30;;;8.27;;
36827;SDS011;22766;48.042;11.192;2024-03-08T02:08:18;18.13;;;8.77;;
36827;SDS011;22766;48.042;11.192;2024-03-08T02:10:49;22.30;;;8.27;;
36827;SDS011;22766;48.042;11.192;2024-03-08T02:13:17;20.25;;;8.55;;
36827;SDS011;22766;48.042;11.192;2024-03-08T02:15:51;15.23;;;6.55;;
36827;SDS011;22766;48.042;11.192;2024-03-08T02:18:18;14.30;;;6.80;;
36827;SDS011;22766;48.042;11.192;2024-03-08T02:20:46;19.08;;;8.25;;
36827;SDS011;22766;48.042;11.192;2024-03-08T02:23:18;17.08;;;8.85;;
36827;SDS011;22766;48.042;11.192;2024-03-08T02:25:46;14.35;;;7.45;;
36827;SDS011;22766;48.042;11.192;2024-03-08T02:28:14;18.08;;;8.80;;
36827;SDS011;22766;48.042;11.192;2024-03-08T02:30:41;15.35;;;8.00;;
36827;SDS011;22766;48.042;11.192;2024-03-08T02:33:08;15.23;;;7.75;;
36827;SDS011;22766;48.042;11.192;2024-03-08T02:35:37;19.77;;;8.70;;
36827;SDS011;22766;48.042;11.192;2024-03-08T02:38:04;17.17;;;7.95;;
36827;SDS011;22766;48.042;11.192;2024-03-08T02:40:31;22.13;;;9.45;;
36827;SDS011;22766;48.042;11.192;2024-03-08T02:42:58;17.08;;;7.68;;
36827;SDS011;22766;48.042;11.192;2024-03-08T02:45:25;17.33;;;8.43;;
36827;SDS011;22766;48.042;11.192;2024-03-08T02:47:52;17.33;;;7.85;;
36827;SDS011;22766;48.042;11.192;2024-03-08T02:50:19;17.00;;;7.72;;
36827;SDS011;22766;48.042;11.192;2024-03-08T02:52:46;16.35;;;8.00;;
36827;SDS011;22766;48.042;11.192;2024-03-08T02:55:13;12.68;;;7.13;;
36827;SDS011;22766;48.042;11.192;2024-03-08T02:57:43;16.63;;;7.80;;
36827;SDS011;22766;48.042;11.192;2024-03-08T03:00:10;15.85;;;8.13;;
36827;SDS011;22766;48.042;11.192;2024-03-08T03:02:37;13.57;;;7.13;;
36827;SDS011;22766;48.042;11.192;2024-03-08T03:05:04;16.92;;;7.95;;
36827;SDS011;22766;48.042;11.192;2024-03-08T03:07:32;18.70;;;7.80;;
36827;SDS011;22766;48.042;11.192;2024-03-08T03:09:59;16.23;;;8.00;;
36827;SDS011;22766;48.042;11.192;2024-03-08T03:12:30;19.80;;;8.95;;
36827;SDS011;22766;48.042;11.192;2024-03-08T03:14:58;18.15;;;7.72;;
36827;SDS011;22766;48.042;11.192;2024-03-08T03:17:25;16.50;;;7.75;;
36827;SDS011;22766;48.042;11.192;2024-03-08T03:19:52;18.02;;;8.07;;
36827;SDS011;22766;48.042;11.192;2024-03-08T03:22:19;15.90;;;6.32;;
36827;SDS011;22766;48.042;11.192;2024-03-08T03:24:46;15.05;;;7.43;;
36827;SDS011;22766;48.042;11.192;2024-03-08T03:27:13;17.65;;;7.82;;
36827;SDS011;22766;48.042;11.192;2024-03-08T03:29:42;16.67;;;8.10;;
36827;SDS011;22766;48.042;11.192;2024-03-08T03:32:13;16.83;;;8.20;;
36827;SDS011;22766;48.042;11.192;2024-03-08T03:34:40;17.58;;;8.18;;
36827;SDS011;22766;48.042;11.192;2024-03-08T03:37:08;16.63;;;7.47;;
36827;SDS011;22766;48.042;11.192;2024-03-08T03:39:39;16.40;;;8.23;;
36827;SDS011;22766;48.042;11.192;2024-03-08T03:42:16;14.70;;;7.88;;
36827;SDS011;22766;48.042;11.192;2024-03-08T03:44:46;14.15;;;8.20;;
36827;SDS011;22766;48.042;11.192;2024-03-08T03:47:15;17.42;;;8.75;;
36827;SDS011;22766;48.042;11.192;2024-03-08T03:49:42;20.30;;;8.55;;
36827;SDS011;22766;48.042;11.192;2024-03-08T03:52:09;13.32;;;6.40;;
36827;SDS011;22766;48.042;11.192;2024-03-08T03:54:36;15.80;;;7.90;;
36827;SDS011;22766;48.042;11.192;2024-03-08T03:57:03;14.63;;;6.72;;
36827;SDS011;22766;48.042;11.192;2024-03-08T03:59:30;20.75;;;7.57;;
36827;SDS011;22766;48.042;11.192;2024-03-08T04:01:57;18.42;;;7.55;;
36827;SDS011;22766;48.042;11.192;2024-03-08T04:04:24;17.40;;;8.30;;
36827;SDS011;22766;48.042;11.192;2024-03-08T04:06:51;18.50;;;7.45;;
36827;SDS011;22766;48.042;11.192;2024-03-08T04:09:18;20.20;;;7.50;;
36827;SDS011;22766;48.042;11.192;2024-03-08T04:11:49;17.08;;;8.77;;
36827;SDS011;22766;48.042;11.192;2024-03-08T04:14:16;15.68;;;8.20;;
36827;SDS011;22766;48.042;11.192;2024-03-08T04:16:43;16.02;;;7.95;;
36827;SDS011;22766;48.042;11.192;2024-03-08T04:19:10;18.70;;;9.45;;
36827;SDS011;22766;48.042;11.192;2024-03-08T04:21:37;17.08;;;8.20;;
36827;SDS011;22766;48.042;11.192;2024-03-08T04:24:04;16.25;;;8.25;;
36827;SDS011;22766;48.042;11.192;2024-03-08T04:26:33;19.10;;;7.75;;
36827;SDS011;22766;48.042;11.192;2024-03-08T04:29:00;17.23;;;8.13;;
36827;SDS011;22766;48.042;11.192;2024-03-08T04:31:27;24.95;;;9.30;;
36827;SDS011;22766;48.042;11.192;2024-03-08T04:33:54;14.40;;;8.13;;
36827;SDS011;22766;48.042;11.192;2024-03-08T04:36:21;20.05;;;9.15;;
36827;SDS011;22766;48.042;11.192;2024-03-08T04:38:48;17.83;;;7.95;;
36827;SDS011;22766;48.042;11.192;2024-03-08T04:41:15;19.63;;;8.50;;
36827;SDS011;22766;48.042;11.192;2024-03-08T04:43:42;19.63;;;8.63;;
36827;SDS011;22766;48.042;11.192;2024-03-08T04:46:09;19.10;;;8.98;;
36827;SDS011;22766;48.042;11.192;2024-03-08T04:48:35;17.90;;;8.93;;
36827;SDS011;22766;48.042;11.192;2024-03-08T04:51:03;17.17;;;8.82;;
36827;SDS011;22766;48.042;11.192;2024-03-08T04:53:31;17.50;;;8.88;;
36827;SDS011;22766;48.042;11.192;2024-03-08T04:55:59;18.45;;;8.73;;
36827;SDS011;22766;48.042;11.192;2024-03-08T04:58:26;21.08;;;9.38;;
36827;SDS011;22766;48.042;11.192;2024-03-08T05:00:54;17.95;;;8.43;;
36827;SDS011;22766;48.042;11.192;2024-03-08T05:03:21;17.80;;;7.93;;
36827;SDS011;22766;48.042;11.192;2024-03-08T05:05:48;18.90;;;9.55;;
36827;SDS011;22766;48.042;11.192;2024-03-08T05:08:15;21.42;;;9.70;;
36827;SDS011;22766;48.042;11.192;2024-03-08T05:10:45;17.50;;;8.73;;
36827;SDS011;22766;48.042;11.192;2024-03-08T05:13:13;16.95;;;8.13;;
36827;SDS011;22766;48.042;11.192;2024-03-08T05:15:39;22.50;;;9.13;;
36827;SDS011;22766;48.042;11.192;2024-03-08T05:18:06;19.23;;;9.40;;
36827;SDS011;22766;48.042;11.192;2024-03-08T05:20:33;17.23;;;9.07;;
36827;SDS011;22766;48.042;11.192;2024-03-08T05:23:00;19.30;;;8.95;;
36827;SDS011;22766;48.042;11.192;2024-03-08T05:25:27;19.25;;;9.18;;
36827;SDS011;22766;48.042;11.192;2024-03-08T05:27:53;20.98;;;9.93;;
36827;SDS011;22766;48.042;11.192;2024-03-08T05:30:20;19.13;;;9.27;;
36827;SDS011;22766;48.042;11.192;2024-03-08T05:32:48;19.77;;;9.50;;
36827;SDS011;22766;48.042;11.192;2024-03-08T05:35:15;20.55;;;9.85;;
36827;SDS011;22766;48.042;11.192;2024-03-08T05:37:45;21.95;;;9.75;;
36827;SDS011;22766;48.042;11.192;2024-03-08T05:40:12;18.30;;;9.20;;
36827;SDS011;22766;48.042;11.192;2024-03-08T05:42:44;22.13;;;9.82;;
36827;SDS011;22766;48.042;11.192;2024-03-08T05:45:10;25.92;;;10.20;;
36827;SDS011;22766;48.042;11.192;2024-03-08T05:47:38;24.85;;;10.73;;
36827;SDS011;22766;48.042;11.192;2024-03-08T05:50:06;27.75;;;11.55;;
36827;SDS011;22766;48.042;11.192;2024-03-08T05:52:36;22.80;;;9.70;;
36827;SDS011;22766;48.042;11.192;2024-03-08T05:55:05;20.55;;;10.27;;
36827;SDS011;22766;48.042;11.192;2024-03-08T05:57:34;20.10;;;9.45;;
36827;SDS011;22766;48.042;11.192;2024-03-08T06:00:01;20.05;;;8.77;;
36827;SDS011;22766;48.042;11.192;2024-03-08T06:02:38;24.48;;;10.85;;
36827;SDS011;22766;48.042;11.192;2024-03-08T06:05:11;22.45;;;9.27;;
36827;SDS011;22766;48.042;11.192;2024-03-08T06:07:38;21.48;;;9.90;;
36827;SDS011;22766;48.042;11.192;2024-03-08T06:10:08;23.70;;;9.45;;
36827;SDS011;22766;48.042;11.192;2024-03-08T06:12:39;21.45;;;9.93;;
36827;SDS011;22766;48.042;11.192;2024-03-08T06:15:09;20.85;;;9.02;;
36827;SDS011;22766;48.042;11.192;2024-03-08T06:17:36;24.70;;;10.18;;
36827;SDS011;22766;48.042;11.192;2024-03-08T06:20:03;23.52;;;10.52;;
36827;SDS011;22766;48.042;11.192;2024-03-08T06:22:37;21.00;;;10.02;;
36827;SDS011;22766;48.042;11.192;2024-03-08T06:25:13;18.55;;;8.35;;
36827;SDS011;22766;48.042;11.192;2024-03-08T06:27:43;18.77;;;9.43;;
36827;SDS011;22766;48.042;11.192;2024-03-08T06:30:10;23.10;;;9.18;;
36827;SDS011;22766;48.042;11.192;2024-03-08T06:32:37;18.90;;;8.07;;
36827;SDS011;22766;48.042;11.192;2024-03-08T06:35:04;20.65;;;9.73;;
36827;SDS011;22766;48.042;11.192;2024-03-08T06:37:32;25.75;;;10.15;;
36827;SDS011;22766;48.042;11.192;2024-03-08T06:40:00;20.42;;;10.35;;
36827;SDS011;22766;48.042;11.192;2024-03-08T06:42:28;22.65;;;10.55;;
36827;SDS011;22766;48.042;11.192;2024-03-08T06:44:55;15.70;;;8.43;;
36827;SDS011;22766;48.042;11.192;2024-03-08T06:47:26;18.52;;;8.95;;
36827;SDS011;22766;48.042;11.192;2024-03-08T06:49:53;19.42;;;9.50;;
36827;SDS011;22766;48.042;11.192;2024-03-08T06:52:20;20.50;;;10.25;;
36827;SDS011;22766;48.042;11.192;2024-03-08T06:54:48;23.08;;;9.23;;
36827;SDS011;22766;48.042;11.192;2024-03-08T06:57:15;25.35;;;10.65;;
36827;SDS011;22766;48.042;11.192;2024-03-08T06:59:43;18.75;;;9.50;;
36827;SDS011;22766;48.042;11.192;2024-03-08T07:02:10;22.63;;;10.00;;
36827;SDS011;22766;48.042;11.192;2024-03-08T07:04:36;21.15;;;9.85;;
36827;SDS011;22766;48.042;11.192;2024-03-08T07:07:04;19.45;;;9.60;;
36827;SDS011;22766;48.042;11.192;2024-03-08T07:09:31;19.17;;;8.77;;
36827;SDS011;22766;48.042;11.192;2024-03-08T07:11:58;16.55;;;8.68;;
36827;SDS011;22766;48.042;11.192;2024-03-08T07:14:25;22.55;;;9.32;;
36827;SDS011;22766;48.042;11.192;2024-03-08T07:16:52;21.40;;;9.45;;
36827;SDS011;22766;48.042;11.192;2024-03-08T07:19:19;20.42;;;8.50;;
36827;SDS011;22766;48.042;11.192;2024-03-08T07:21:46;20.33;;;9.38;;
36827;SDS011;22766;48.042;11.192;2024-03-08T07:24:13;20.13;;;8.90;;
36827;SDS011;22766;48.042;11.192;2024-03-08T07:26:40;20.00;;;9.38;;
36827;SDS011;22766;48.042;11.192;2024-03-08T07:29:07;17.83;;;9.35;;
36827;SDS011;22766;48.042;11.192;2024-03-08T07:31:34;21.35;;;9.55;;
36827;SDS011;22766;48.042;11.192;2024-03-08T07:34:11;18.02;;;8.05;;
36827;SDS011;22766;48.042;11.192;2024-03-08T07:36:39;18.00;;;7.93;;
36827;SDS011;22766;48.042;11.192;2024-03-08T07:39:05;18.50;;;8.60;;
36827;SDS011;22766;48.042;11.192;2024-03-08T07:41:38;18.60;;;8.10;;
36827;SDS011;22766;48.042;11.192;2024-03-08T07:44:07;25.75;;;9.45;;
36827;SDS011;22766;48.042;11.192;2024-03-08T07:46:34;20.95;;;8.57;;
36827;SDS011;22766;48.042;11.192;2024-03-08T07:49:01;22.55;;;9.05;;
36827;SDS011;22766;48.042;11.192;2024-03-08T07:51:29;22.70;;;9.68;;
36827;SDS011;22766;48.042;11.192;2024-03-08T07:53:57;20.75;;;9.23;;
36827;SDS011;22766;48.042;11.192;2024-03-08T07:56:28;22.13;;;10.13;;
36827;SDS011;22766;48.042;11.192;2024-03-08T07:58:55;20.92;;;7.78;;
36827;SDS011;22766;48.042;11.192;2024-03-08T08:01:22;21.42;;;9.88;;
36827;SDS011;22766;48.042;11.192;2024-03-08T08:03:49;22.30;;;9.52;;
36827;SDS011;22766;48.042;11.192;2024-03-08T08:06:16;18.30;;;8.02;;
36827;SDS011;22766;48.042;11.192;2024-03-08T08:08:42;23.05;;;9.57;;
36827;SDS011;22766;48.042;11.192;2024-03-08T08:11:10;19.30;;;8.35;;
36827;SDS011;22766;48.042;11.192;2024-03-08T08:13:42;15.15;;;7.60;;
36827;SDS011;22766;48.042;11.192;2024-03-08T08:16:09;18.83;;;8.45;;
36827;SDS011;22766;48.042;11.192;2024-03-08T08:18:39;15.35;;;7.90;;
36827;SDS011;22766;48.042;11.192;2024-03-08T08:21:07;18.33;;;8.50;;
36827;SDS011;22766;48.042;11.192;2024-03-08T08:23:34;18.08;;;8.45;;
36827;SDS011;22766;48.042;11.192;2024-03-08T08:26:01;21.17;;;8.30;;
36827;SDS011;22766;48.042;11.192;2024-03-08T08:28:31;19.92;;;8.63;;
36827;SDS011;22766;48.042;11.192;2024-03-08T08:30:58;18.35;;;8.10;;
36827;SDS011;22766;48.042;11.192;2024-03-08T08:33:26;19.80;;;8.75;;
36827;SDS011;22766;48.042;11.192;2024-03-08T08:35:53;18.05;;;8.80;;
36827;SDS011;22766;48.042;11.192;2024-03-08T08:38:20;16.90;;;7.50;;
36827;SDS011;22766;48.042;11.192;2024-03-08T08:40:47;15.52;;;7.38;;
36827;SDS011;22766;48.042;11.192;2024-03-08T08:43:14;17.40;;;9.27;;
36827;SDS011;22766;48.042;11.192;2024-03-08T08:45:41;17.33;;;8.82;;
36827;SDS011;22766;48.042;11.192;2024-03-08T08:48:09;16.17;;;8.63;;
36827;SDS011;22766;48.042;11.192;2024-03-08T08:50:37;17.55;;;8.40;;
36827;SDS011;22766;48.042;11.192;2024-03-08T08:53:04;15.20;;;7.70;;
36827;SDS011;22766;48.042;11.192;2024-03-08T08:55:33;15.45;;;8.10;;
36827;SDS011;22766;48.042;11.192;2024-03-08T08:58:02;17.23;;;8.38;;
36827;SDS011;22766;48.042;11.192;2024-03-08T09:00:30;19.10;;;9.82;;
36827;SDS011;22766;48.042;11.192;2024-03-08T09:02:57;14.70;;;8.05;;
36827;SDS011;22766;48.042;11.192;2024-03-08T09:05:25;19.15;;;8.40;;
36827;SDS011;22766;48.042;11.192;2024-03-08T09:07:52;16.33;;;8.63;;
36827;SDS011;22766;48.042;11.192;2024-03-08T09:10:19;15.77;;;8.18;;
36827;SDS011;22766;48.042;11.192;2024-03-08T09:12:46;15.43;;;8.38;;
36827;SDS011;22766;48.042;11.192;2024-03-08T09:15:14;17.48;;;8.65;;
36827;SDS011;22766;48.042;11.192;2024-03-08T09:17:40;14.43;;;7.50;;
36827;SDS011;22766;48.042;11.192;2024-03-08T09:20:09;15.98;;;7.97;;
36827;SDS011;22766;48.042;11.192;2024-03-08T09:22:37;18.23;;;8.52;;
36827;SDS011;22766;48.042;11.192;2024-03-08T09:25:04;19.20;;;8.05;;
36827;SDS011;22766;48.042;11.192;2024-03-08T09:27:32;15.68;;;7.72;;
36827;SDS011;22766;48.042;11.192;2024-03-08T09:30:04;13.73;;;7.75;;
36827;SDS011;22766;48.042;11.192;2024-03-08T09:32:33;17.35;;;8.02;;
36827;SDS011;22766;48.042;11.192;2024-03-08T09:35:01;18.52;;;8.07;;
36827;SDS011;22766;48.042;11.192;2024-03-08T09:37:28;16.85;;;8.50;;
36827;SDS011;22766;48.042;11.192;2024-03-08T09:39:55;14.02;;;7.22;;
36827;SDS011;22766;48.042;11.192;2024-03-08T09:42:22;13.20;;;6.82;;
36827;SDS011;22766;48.042;11.192;2024-03-08T09:44:48;16.33;;;7.90;;
36827;SDS011;22766;48.042;11.192;2024-03-08T09:47:15;13.25;;;6.57;;
36827;SDS011;22766;48.042;11.192;2024-03-08T09:49:44;16.75;;;8.15;;
36827;SDS011;22766;48.042;11.192;2024-03-08T09:52:10;14.05;;;7.50;;
36827;SDS011;22766;48.042;11.192;2024-03-08T09:54:39;16.38;;;8.05;;
36827;SDS011;22766;48.042;11.192;2024-03-08T09:57:06;14.18;;;7.35;;
36827;SDS011;22766;48.042;11.192;2024-03-08T09:59:35;16.90;;;8.18;;
36827;SDS011;22766;48.042;11.192;2024-03-08T10:02:02;16.67;;;7.57;;
36827;SDS011;22766;48.042;11.192;2024-03-08T10:04:29;13.48;;;6.85;;
36827;SDS011;22766;48.042;11.192;2024-03-08T10:06:57;15.13;;;7.80;;
36827;SDS011;22766;48.042;11.192;2024-03-08T10:09:25;15.07;;;7.45;;
36827;SDS011;22766;48.042;11.192;2024-03-08T10:11:56;12.40;;;7.13;;
36827;SDS011;22766;48.042;11.192;2024-03-08T10:14:27;14.65;;;7.25;;
36827;SDS011;22766;48.042;11.192;2024-03-08T10:16:54;13.20;;;6.75;;
36827;SDS011;22766;48.042;11.192;2024-03-08T10:19:21;12.60;;;6.68;;
36827;SDS011;22766;48.042;11.192;2024-03-08T10:21:52;13.35;;;6.82;;
36827;SDS011;22766;48.042;11.192;2024-03-08T10:24:20;13.43;;;7.53;;
36827;SDS011;22766;48.042;11.192;2024-03-08T10:26:46;11.30;;;6.35;;
36827;SDS011;22766;48.042;11.192;2024-03-08T10:29:14;13.27;;;7.10;;
36827;SDS011;22766;48.042;11.192;2024-03-08T10:31:43;12.63;;;6.65;;
36827;SDS011;22766;48.042;11.192;2024-03-08T10:34:11;11.80;;;6.63;;
36827;SDS011;22766;48.042;11.192;2024-03-08T10:36:38;12.52;;;6.05;;
36827;SDS011;22766;48.042;11.192;2024-03-08T10:39:19;12.48;;;7.32;;
36827;SDS011;22766;48.042;11.192;2024-03-08T10:41:53;13.90;;;6.78;;
36827;SDS011;22766;48.042;11.192;2024-03-08T10:47:12;14.65;;;7.03;;
36827;SDS011;22766;48.042;11.192;2024-03-08T10:49:50;15.55;;;6.60;;
36827;SDS011;22766;48.042;11.192;2024-03-08T10:52:18;12.52;;;6.93;;
36827;SDS011;22766;48.042;11.192;2024-03-08T10:54:45;13.07;;;6.68;;
36827;SDS011;22766;48.042;11.192;2024-03-08T10:57:14;11.25;;;6.72;;
36827;SDS011;22766;48.042;11.192;2024-03-08T10:59:45;12.20;;;5.82;;
36827;SDS011;22766;48.042;11.192;2024-03-08T11:02:16;11.20;;;5.97;;
36827;SDS011;22766;48.042;11.192;2024-03-08T11:04:50;11.65;;;5.80;;
36827;SDS011;22766;48.042;11.192;2024-03-08T11:07:17;13.07;;;7.05;;
36827;SDS011;22766;48.042;11.192;2024-03-08T11:09:47;11.38;;;5.57;;
36827;SDS011;22766;48.042;11.192;2024-03-08T11:12:22;12.75;;;5.93;;
36827;SDS011;22766;48.042;11.192;2024-03-08T11:14:58;10.02;;;5.97;;
36827;SDS011;22766;48.042;11.192;2024-03-08T11:19:58;10.82;;;6.53;;
36827;SDS011;22766;48.042;11.192;2024-03-08T11:22:32;13.35;;;7.05;;
36827;SDS011;22766;48.042;11.192;2024-03-08T11:25:03;12.40;;;6.25;;
36827;SDS011;22766;48.042;11.192;2024-03-08T11:27:36;9.05;;;5.30;;
36827;SDS011;22766;48.042;11.192;2024-03-08T11:30:05;8.55;;;5.13;;
36827;SDS011;22766;48.042;11.192;2024-03-08T11:32:44;12.40;;;6.55;;
36827;SDS011;22766;48.042;11.192;2024-03-08T11:35:18;10.13;;;5.90;;
36827;SDS011;22766;48.042;11.192;2024-03-08T11:37:46;12.52;;;5.97;;
36827;SDS011;22766;48.042;11.192;2024-03-08T11:40:14;10.50;;;5.38;;
36827;SDS011;22766;48.042;11.192;2024-03-08T11:42:46;9.82;;;5.97;;
36827;SDS011;22766;48.042;11.192;2024-03-08T11:45:17;10.77;;;6.25;;
36827;SDS011;22766;48.042;11.192;2024-03-08T11:47:48;10.32;;;5.30;;
36827;SDS011;22766;48.042;11.192;2024-03-08T11:50:17;10.25;;;5.65;;
36827;SDS011;22766;48.042;11.192;2024-03-08T11:52:46;8.50;;;5.15;;
36827;SDS011;22766;48.042;11.192;2024-03-08T11:55:13;11.13;;;5.95;;
36827;SDS011;22766;48.042;11.192;2024-03-08T11:57:40;11.85;;;6.78;;
36827;SDS011;22766;48.042;11.192;2024-03-08T12:00:18;11.68;;;6.47;;
36827;SDS011;22766;48.042;11.192;2024-03-08T12:03:02;8.27;;;5.07;;
36827;SDS011;22766;48.042;11.192;2024-03-08T12:05:30;9.27;;;5.60;;
36827;SDS011;22766;48.042;11.192;2024-03-08T12:08:00;9.80;;;5.37;;
36827;SDS011;22766;48.042;11.192;2024-03-08T12:10:29;10.02;;;6.13;;
36827;SDS011;22766;48.042;11.192;2024-03-08T12:12:57;11.23;;;6.38;;
36827;SDS011;22766;48.042;11.192;2024-03-08T12:15:30;11.07;;;5.20;;
36827;SDS011;22766;48.042;11.192;2024-03-08T12:18:00;9.70;;;5.15;;
36827;SDS011;22766;48.042;11.192;2024-03-08T12:20:28;9.32;;;5.38;;
36827;SDS011;22766;48.042;11.192;2024-03-08T12:22:58;10.88;;;5.53;;
36827;SDS011;22766;48.042;11.192;2024-03-08T12:25:33;10.50;;;5.40;;
36827;SDS011;22766;48.042;11.192;2024-03-08T12:28:07;10.25;;;5.78;;
36827;SDS011;22766;48.042;11.192;2024-03-08T12:30:47;9.90;;;5.60;;
36827;SDS011;22766;48.042;11.192;2024-03-08T12:33:14;9.02;;;5.68;;
36827;SDS011;22766;48.042;11.192;2024-03-08T12:35:49;11.32;;;4.90;;
36827;SDS011;22766;48.042;11.192;2024-03-08T12:38:17;10.32;;;4.88;;
36827;SDS011;22766;48.042;11.192;2024-03-08T12:40:43;9.15;;;4.95;;
36827;SDS011;22766;48.042;11.192;2024-03-08T12:43:12;9.63;;;4.90;;
36827;SDS011;22766;48.042;11.192;2024-03-08T12:45:42;10.82;;;6.07;;
36827;SDS011;22766;48.042;11.192;2024-03-08T12:48:15;12.05;;;6.57;;
36827;SDS011;22766;48.042;11.192;2024-03-08T12:50:42;11.85;;;6.05;;
36827;SDS011;22766;48.042;11.192;2024-03-08T12:53:14;8.75;;;5.13;;
36827;SDS011;22766;48.042;11.192;2024-03-08T12:55:41;8.57;;;5.63;;
36827;SDS011;22766;48.042;11.192;2024-03-08T12:58:08;13.43;;;6.95;;
36827;SDS011;22766;48.042;11.192;2024-03-08T13:00:35;9.68;;;5.25;;
36827;SDS011;22766;48.042;11.192;2024-03-08T13:03:09;13.93;;;6.45;;
36827;SDS011;22766;48.042;11.192;2024-03-08T13:05:37;12.48;;;5.78;;
36827;SDS011;22766;48.042;11.192;2024-03-08T13:08:06;15.55;;;6.45;;
36827;SDS011;22766;48.042;11.192;2024-03-08T13:10:40;12.48;;;5.35;;
36827;SDS011;22766;48.042;11.192;2024-03-08T13:13:10;11.82;;;6.32;;
36827;SDS011;22766;48.042;11.192;2024-03-08T13:15:40;9.65;;;5.68;;
36827;SDS011;22766;48.042;11.192;2024-03-08T13:18:07;10.63;;;6.60;;
36827;SDS011;22766;48.042;11.192;2024-03-08T13:20:35;14.00;;;7.38;;
36827;SDS011;22766;48.042;11.192;2024-03-08T13:23:13;12.70;;;6.78;;
36827;SDS011;22766;48.042;11.192;2024-03-08T13:25:39;10.95;;;6.45;;
36827;SDS011;22766;48.042;11.192;2024-03-08T13:28:07;10.18;;;5.78;;
36827;SDS011;22766;48.042;11.192;2024-03-08T13:30:35;10.55;;;5.30;;
36827;SDS011;22766;48.042;11.192;2024-03-08T13:33:02;9.00;;;5.85;;
36827;SDS011;22766;48.042;11.192;2024-03-08T13:35:32;9.63;;;5.88;;
36827;SDS011;22766;48.042;11.192;2024-03-08T13:37:59;10.98;;;6.18;;
36827;SDS011;22766;48.042;11.192;2024-03-08T13:40:26;11.68;;;5.93;;
36827;SDS011;22766;48.042;11.192;2024-03-08T13:42:53;12.13;;;6.20;;
36827;SDS011;22766;48.042;11.192;2024-03-08T13:45:20;12.82;;;7.18;;
36827;SDS011;22766;48.042;11.192;2024-03-08T13:50:21;10.07;;;6.15;;
36827;SDS011;22766;48.042;11.192;2024-03-08T13:52:49;11.13;;;6.28;;
36827;SDS011;22766;48.042;11.192;2024-03-08T13:55:22;13.13;;;6.80;;
36827;SDS011;22766;48.042;11.192;2024-03-08T13:57:50;12.85;;;7.13;;
36827;SDS011;22766;48.042;11.192;2024-03-08T14:00:18;12.45;;;6.57;;
36827;SDS011;22766;48.042;11.192;2024-03-08T14:05:16;12.93;;;6.43;;
36827;SDS011;22766;48.042;11.192;2024-03-08T14:07:45;9.23;;;5.97;;
36827;SDS011;22766;48.042;11.192;2024-03-08T14:10:15;11.57;;;6.53;;
36827;SDS011;22766;48.042;11.192;2024-03-08T14:12:43;10.98;;;6.40;;
36827;SDS011;22766;48.042;11.192;2024-03-08T14:15:11;9.77;;;5.80;;
36827;SDS011;22766;48.042;11.192;2024-03-08T14:17:39;10.10;;;6.35;;
36827;SDS011;22766;48.042;11.192;2024-03-08T14:20:06;10.15;;;6.28;;
36827;SDS011;22766;48.042;11.192;2024-03-08T14:22:34;11.95;;;6.55;;
36827;SDS011;22766;48.042;11.192;2024-03-08T14:25:01;13.35;;;6.38;;
36827;SDS011;22766;48.042;11.192;2024-03-08T14:27:31;13.32;;;6.88;;
36827;SDS011;22766;48.042;11.192;2024-03-08T14:29:59;14.73;;;7.05;;
36827;SDS011;22766;48.042;11.192;2024-03-08T14:32:26;13.80;;;6.70;;
36827;SDS011;22766;48.042;11.192;2024-03-08T14:34:55;13.05;;;5.90;;
36827;SDS011;22766;48.042;11.192;2024-03-08T14:37:21;12.65;;;6.47;;